createdAt,value
2023-04-01T00:02:26.136Z,38.75
2023-04-01T00:04:53.328Z,38.07
2023-04-01T00:07:38.924Z,38.35
2023-04-01T00:10:06.641Z,38.37
2023-04-01T00:12:33.311Z,38.72
2023-04-01T00:15:00.563Z,37.93
2023-04-01T00:17:27.205Z,39.01
2023-04-01T00:19:55.920Z,38.63
2023-04-01T00:22:23.151Z,39.21
2023-04-01T00:24:50.045Z,39.24
2023-04-01T00:27:17.116Z,38.55
2023-04-01T00:29:44.283Z,38.93
2023-04-01T00:32:11.677Z,39.68
2023-04-01T00:34:38.720Z,39.43
2023-04-01T00:37:07.008Z,39.75
2023-04-01T00:39:34.011Z,39.41
2023-04-01T00:42:01.393Z,39.13
2023-04-01T00:44:29.596Z,38.82
2023-04-01T00:46:56.784Z,39.60
2023-04-01T00:49:24.750Z,40.00
2023-04-01T00:51:52.975Z,40.91
2023-04-01T00:54:20.830Z,41.04
2023-04-01T00:57:02.057Z,40.54
2023-04-01T00:59:31.398Z,40.30
2023-04-01T01:01:58.045Z,40.03
2023-04-01T01:04:29.520Z,39.46
2023-04-01T01:06:56.233Z,40.44
2023-04-01T01:09:37.870Z,41.48
2023-04-01T01:12:10.804Z,41.42
2023-04-01T01:14:37.350Z,42.18
2023-04-01T01:17:16.061Z,41.76
2023-04-01T01:20:02.672Z,42.27
2023-04-01T01:22:37.015Z,41.70
2023-04-01T01:25:09.598Z,41.34
2023-04-01T01:27:39.228Z,41.20
2023-04-01T01:30:09.199Z,41.13
2023-04-01T01:32:38.837Z,41.47
2023-04-01T01:35:18.251Z,40.81
2023-04-01T01:37:46.181Z,40.47
2023-04-01T01:40:14.307Z,40.84
2023-04-01T01:42:44.204Z,40.24
2023-04-01T01:45:13.481Z,41.09
2023-04-01T01:47:41.432Z,39.46
2023-04-01T01:50:09.113Z,38.91
2023-04-01T01:52:36.199Z,39.60
2023-04-01T01:55:03.265Z,39.44
2023-04-01T01:57:42.942Z,39.15
2023-04-01T02:00:15.728Z,39.56
2023-04-01T02:02:46.445Z,40.30
2023-04-01T02:05:17.764Z,39.66
2023-04-01T02:07:46.446Z,39.52
2023-04-01T02:10:13.839Z,39.45
2023-04-01T02:12:41.983Z,39.62
2023-04-01T02:15:14.315Z,39.69
2023-04-01T02:17:44.697Z,39.84
2023-04-01T02:20:11.701Z,39.93
2023-04-01T02:22:42.667Z,40.00
2023-04-01T02:25:11.586Z,39.39
2023-04-01T02:27:39.341Z,39.53
2023-04-01T02:30:07.216Z,40.06
2023-04-01T02:32:34.905Z,39.43
2023-04-01T02:35:06.813Z,39.98
2023-04-01T02:37:35.584Z,39.50
2023-04-01T02:40:04.002Z,38.77
2023-04-01T02:42:30.668Z,39.96
2023-04-01T02:44:57.311Z,40.01
2023-04-01T02:47:24.061Z,39.66
2023-04-01T02:49:50.801Z,39.68
2023-04-01T02:52:17.754Z,39.83
2023-04-01T02:54:44.448Z,40.59
2023-04-01T02:57:11.126Z,40.53
2023-04-01T02:59:37.863Z,40.51
2023-04-01T03:02:04.563Z,41.10
2023-04-01T03:04:31.214Z,40.32
2023-04-01T03:06:57.851Z,41.17
2023-04-01T03:09:24.732Z,41.43
2023-04-01T03:11:52.370Z,41.03
2023-04-01T03:14:19.091Z,40.58
2023-04-01T03:16:46.284Z,39.98
2023-04-01T03:19:12.977Z,40.78
2023-04-01T03:21:39.666Z,41.94
2023-04-01T03:24:07.209Z,41.23
2023-04-01T03:26:33.928Z,41.29
2023-04-01T03:29:01.137Z,42.40
2023-04-01T03:31:27.847Z,41.87
2023-04-01T03:33:57.106Z,42.73
2023-04-01T03:36:23.851Z,42.63
2023-04-01T03:38:50.703Z,41.38
2023-04-01T03:41:24.014Z,40.84
2023-04-01T03:43:50.760Z,41.20
2023-04-01T03:46:21.321Z,40.72
2023-04-01T03:48:48.295Z,41.55
2023-04-01T03:51:14.952Z,41.02
2023-04-01T03:53:41.835Z,41.42
2023-04-01T03:56:09.164Z,41.60
2023-04-01T03:58:37.074Z,41.44
2023-04-01T04:01:13.974Z,41.81
2023-04-01T04:03:41.062Z,41.65
2023-04-01T04:06:12.041Z,42.06
2023-04-01T04:08:39.396Z,41.80
2023-04-01T04:11:06.151Z,41.31
2023-04-01T04:13:33.701Z,41.60
2023-04-01T04:16:01.943Z,42.34
2023-04-01T04:18:29.584Z,40.80
2023-04-01T04:20:56.517Z,41.58
2023-04-01T04:23:23.200Z,41.71
2023-04-01T04:26:01.247Z,41.94
2023-04-01T04:28:29.362Z,41.48
2023-04-01T04:30:58.349Z,41.88
2023-04-01T04:33:25.742Z,41.47
2023-04-01T04:35:52.970Z,42.29
2023-04-01T04:38:19.897Z,41.46
2023-04-01T04:40:46.893Z,41.28
2023-04-01T04:43:14.711Z,41.64
2023-04-01T04:45:41.788Z,41.10
2023-04-01T04:48:10.164Z,40.91
2023-04-01T04:50:37.398Z,41.38
2023-04-01T04:53:04.285Z,41.17
2023-04-01T04:55:33.014Z,41.59
2023-04-01T04:58:27.941Z,41.53
2023-04-01T05:00:55.059Z,42.63
2023-04-01T05:03:28.635Z,40.88
2023-04-01T05:05:55.866Z,40.57
2023-04-01T05:08:22.563Z,40.51
2023-04-01T05:10:49.239Z,40.18
2023-04-01T05:13:15.948Z,39.89
2023-04-01T05:15:46.516Z,40.03
2023-04-01T05:18:13.604Z,39.11
2023-04-01T05:20:40.279Z,39.58
2023-04-01T05:23:07.306Z,40.14
2023-04-01T05:25:34.221Z,39.74
2023-04-01T05:28:01.108Z,40.19
2023-04-01T05:30:29.004Z,40.23
2023-04-01T05:33:02.011Z,40.39
2023-04-01T05:35:29.059Z,40.10
2023-04-01T05:37:55.665Z,40.37
2023-04-01T05:40:22.393Z,39.88
2023-04-01T05:42:49.076Z,39.49
2023-04-01T05:45:17.150Z,39.54
2023-04-01T05:48:02.896Z,39.68
2023-04-01T05:50:35.532Z,38.85
2023-04-01T05:53:03.171Z,39.29
2023-04-01T05:55:29.847Z,39.21
2023-04-01T05:57:56.688Z,39.30
2023-04-01T06:00:23.520Z,39.53
2023-04-01T06:02:51.073Z,39.27
2023-04-01T06:05:22.850Z,38.50
2023-04-01T06:07:51.336Z,38.15
2023-04-01T06:10:19.446Z,37.59
2023-04-01T06:12:46.796Z,37.72
2023-04-01T06:15:21.493Z,37.92
2023-04-01T06:17:58.798Z,37.68
2023-04-01T06:20:33.764Z,38.16
2023-04-01T06:23:13.341Z,38.22
2023-04-01T06:25:53.648Z,37.40
2023-04-01T06:28:20.763Z,38.51
2023-04-01T06:30:47.428Z,38.46
2023-04-01T06:33:43.580Z,37.71
2023-04-01T06:36:26.736Z,38.20
2023-04-01T06:38:59.647Z,38.04
2023-04-01T06:41:29.445Z,38.72
2023-04-01T06:44:06.369Z,39.99
2023-04-01T06:46:59.077Z,38.53
2023-04-01T06:50:00.457Z,37.84
2023-04-01T06:52:27.132Z,38.55
2023-04-01T06:55:15.445Z,38.55
2023-04-01T06:58:07.308Z,37.98
2023-04-01T07:00:37.250Z,38.51
2023-04-01T07:03:07.105Z,38.85
2023-04-01T07:05:34.933Z,38.35
2023-04-01T07:08:04.567Z,39.09
2023-04-01T07:10:50.709Z,38.67
2023-04-01T07:13:46.158Z,38.83
2023-04-01T07:16:16.995Z,39.03
2023-04-01T07:18:50.943Z,38.67
2023-04-01T07:21:25.230Z,39.11
2023-04-01T07:23:57.878Z,38.64
2023-04-01T07:26:33.367Z,38.65
2023-04-01T07:29:11.437Z,38.44
2023-04-01T07:31:55.803Z,38.87
2023-04-01T07:34:31.999Z,39.52
2023-04-01T07:37:00.684Z,38.29
2023-04-01T07:39:50.775Z,38.26
2023-04-01T07:42:36.722Z,37.69
2023-04-01T07:45:03.532Z,37.69
2023-04-01T07:47:53.940Z,37.91
2023-04-01T07:50:28.798Z,37.34
2023-04-01T07:52:56.046Z,36.38
2023-04-01T07:55:25.782Z,36.36
2023-04-01T07:57:57.085Z,36.05
2023-04-01T08:00:30.626Z,36.81
2023-04-01T08:03:24.729Z,36.47
2023-04-01T08:05:54.838Z,36.28
2023-04-01T08:08:25.121Z,35.80
2023-04-01T08:11:18.391Z,35.65
2023-04-01T08:14:16.484Z,35.30
2023-04-01T08:17:30.721Z,34.68
2023-04-01T08:20:01.002Z,35.29
2023-04-01T08:22:38.598Z,35.32
2023-04-01T08:25:17.185Z,35.71
2023-04-01T08:27:54.734Z,35.15
2023-04-01T08:30:32.387Z,35.02
2023-04-01T08:33:09.417Z,35.25
2023-04-01T08:36:03.677Z,35.15
2023-04-01T08:38:54.536Z,35.35
2023-04-01T08:41:29.523Z,35.29
2023-04-01T08:44:21.201Z,34.81
2023-04-01T08:46:49.142Z,34.27
2023-04-01T08:49:21.925Z,35.83
2023-04-01T08:51:54.568Z,36.72
2023-04-01T08:54:26.959Z,33.88
2023-04-01T08:57:13.801Z,33.94
2023-04-01T09:00:12.785Z,33.32
2023-04-01T09:03:08.987Z,32.52
2023-04-01T09:05:45.310Z,32.46
2023-04-01T09:08:21.653Z,32.92
2023-04-01T09:10:57.232Z,33.95
2023-04-01T09:13:53.080Z,31.06
2023-04-01T09:16:19.854Z,31.36
2023-04-01T09:18:50.999Z,31.83
2023-04-01T09:21:44.131Z,30.92
2023-04-01T09:24:14.009Z,31.64
2023-04-01T09:26:52.171Z,30.88
2023-04-01T09:29:19.965Z,30.68
2023-04-01T09:31:56.039Z,30.56
2023-04-01T09:34:53.179Z,31.34
2023-04-01T09:37:37.579Z,31.18
2023-04-01T09:40:19.486Z,31.23
2023-04-01T09:42:57.640Z,31.92
2023-04-01T09:45:28.213Z,30.93
2023-04-01T09:48:06.950Z,31.00
2023-04-01T09:50:34.319Z,31.40
2023-04-01T09:53:16.751Z,30.85
2023-04-01T09:55:49.209Z,30.71
2023-04-01T09:58:27.877Z,30.63
2023-04-01T10:01:32.449Z,31.10
2023-04-01T10:04:12.559Z,31.30
2023-04-01T10:06:52.708Z,31.57
2023-04-01T10:09:38.732Z,31.23
2023-04-01T10:12:19.966Z,31.25
2023-04-01T10:15:02.277Z,32.97
2023-04-01T10:17:28.985Z,32.50
2023-04-01T10:20:22.115Z,31.83
2023-04-01T10:22:59.138Z,31.51
2023-04-01T10:25:28.989Z,31.20
2023-04-01T10:28:17.682Z,31.55
2023-04-01T10:31:32.611Z,31.34
2023-04-01T10:34:28.879Z,31.39
2023-04-01T10:36:59.829Z,31.40
2023-04-01T10:39:36.280Z,30.88
2023-04-01T10:42:47.911Z,30.86
2023-04-01T10:45:37.960Z,30.96
2023-04-01T10:48:23.363Z,30.57
2023-04-01T10:51:10.413Z,30.37
2023-04-01T10:53:50.272Z,31.39
2023-04-01T10:56:45.719Z,31.35
2023-04-01T10:59:49.198Z,31.16
2023-04-01T11:03:14.886Z,31.11
2023-04-01T11:06:22.221Z,30.47
2023-04-01T11:09:07.583Z,30.81
2023-04-01T11:11:53.350Z,30.81
2023-04-01T11:14:39.279Z,30.38
2023-04-01T11:17:36.428Z,31.14
2023-04-01T11:20:09.543Z,30.59
2023-04-01T11:22:45.772Z,30.37
2023-04-01T11:25:21.973Z,30.16
2023-04-01T11:28:14.384Z,30.28
2023-04-01T11:30:59.912Z,30.02
2023-04-01T11:33:27.051Z,29.98
2023-04-01T11:36:08.694Z,31.19
2023-04-01T11:38:46.680Z,30.57
2023-04-01T11:41:42.406Z,33.65
2023-04-01T11:44:28.962Z,33.35
2023-04-01T11:47:31.416Z,32.94
2023-04-01T11:50:13.411Z,35.79
2023-04-01T11:53:02.516Z,38.02
2023-04-01T11:55:38.471Z,44.17
2023-04-01T11:58:07.999Z,47.00
2023-04-01T12:00:41.152Z,51.00
2023-04-01T12:03:37.575Z,51.84
2023-04-01T12:06:22.762Z,52.06
2023-04-01T12:08:49.552Z,52.06
2023-04-01T12:11:29.813Z,50.99
2023-04-01T12:14:14.938Z,52.09
2023-04-01T12:16:47.663Z,51.74
2023-04-01T12:19:40.507Z,50.82
2023-04-01T12:22:24.389Z,51.07
2023-04-01T12:25:00.929Z,51.40
2023-04-01T12:27:38.969Z,51.20
2023-04-01T12:30:24.469Z,50.57
2023-04-01T12:32:54.159Z,49.71
2023-04-01T12:35:21.335Z,50.46
2023-04-01T12:38:06.609Z,51.07
2023-04-01T12:40:52.474Z,51.73
2023-04-01T12:43:39.161Z,51.61
2023-04-01T12:46:05.991Z,53.14
2023-04-01T12:48:32.638Z,52.11
2023-04-01T12:51:28.097Z,52.19
2023-04-01T12:54:14.454Z,51.41
2023-04-01T12:56:50.050Z,51.65
2023-04-01T12:59:28.052Z,51.15
2023-04-01T13:01:57.746Z,51.43
2023-04-01T13:04:24.324Z,51.31
2023-04-01T13:06:58.042Z,51.35
2023-04-01T13:09:39.289Z,51.89
2023-04-01T13:12:24.539Z,52.01
2023-04-01T13:15:00.567Z,51.25
2023-04-01T13:17:27.384Z,51.22
2023-04-01T13:20:06.226Z,51.29
2023-04-01T13:22:36.296Z,50.64
2023-04-01T13:25:05.698Z,50.72
2023-04-01T13:27:38.082Z,50.79
2023-04-01T13:30:23.586Z,50.73
2023-04-01T13:32:59.033Z,50.26
2023-04-01T13:35:48.919Z,48.97
2023-04-01T13:38:15.700Z,46.64
2023-04-01T13:40:55.690Z,45.81
2023-04-01T13:43:29.411Z,44.86
2023-04-01T13:46:09.540Z,43.85
2023-04-01T13:48:54.474Z,43.63
2023-04-01T13:51:39.762Z,41.73
2023-04-01T13:54:25.296Z,42.17
2023-04-01T13:56:51.964Z,44.11
2023-04-01T13:59:18.524Z,44.08
2023-04-01T14:01:55.568Z,44.18
2023-04-01T14:04:35.066Z,43.44
2023-04-01T14:07:21.264Z,42.39
2023-04-01T14:09:50.970Z,42.12
2023-04-01T14:12:20.384Z,40.82
2023-04-01T14:14:47.140Z,40.63
2023-04-01T14:17:18.911Z,39.32
2023-04-01T14:20:04.464Z,38.72
2023-04-01T14:25:39.440Z,41.14
2023-04-01T14:28:25.313Z,40.95
2023-04-01T14:30:58.049Z,41.79
2023-04-01T14:33:27.818Z,42.07
2023-04-01T14:36:10.509Z,42.95
2023-04-01T14:38:56.047Z,41.51
2023-04-01T14:41:51.961Z,40.65
2023-04-01T14:44:18.674Z,39.43
2023-04-01T14:46:51.396Z,38.60
2023-04-01T14:49:21.571Z,38.34
2023-04-01T14:51:49.350Z,37.36
2023-04-01T14:54:23.720Z,37.75
2023-04-01T14:57:11.528Z,37.36
2023-04-01T14:59:40.972Z,37.44
2023-04-01T15:02:31.019Z,36.80
2023-04-01T15:05:00.945Z,36.89
2023-04-01T15:07:46.276Z,37.22
2023-04-01T15:10:25.296Z,39.03
2023-04-01T15:13:13.637Z,38.25
2023-04-01T15:16:01.090Z,39.96
2023-04-01T15:18:31.360Z,39.93
2023-04-01T15:21:13.308Z,40.04
2023-04-01T15:23:50.114Z,41.12
2023-04-01T15:26:26.263Z,41.62
2023-04-01T15:28:52.895Z,42.09
2023-04-01T15:31:31.899Z,42.66
2023-04-01T15:34:04.742Z,42.95
2023-04-01T15:36:41.634Z,42.60
2023-04-01T15:39:18.006Z,42.33
2023-04-01T15:42:04.295Z,42.43
2023-04-01T15:44:31.764Z,43.02
2023-04-01T15:46:58.957Z,44.07
2023-04-01T15:49:32.361Z,44.22
2023-04-01T15:52:16.155Z,43.62
2023-04-01T15:55:02.136Z,45.01
2023-04-01T15:57:49.129Z,45.47
2023-04-01T16:00:34.563Z,46.19
2023-04-01T16:03:11.499Z,46.15
2023-04-01T16:05:51.315Z,47.92
2023-04-01T16:08:30.261Z,52.64
2023-04-01T16:11:04.230Z,53.45
2023-04-01T16:13:37.118Z,53.50
2023-04-01T16:16:06.595Z,54.00
2023-04-01T16:18:33.144Z,54.47
2023-04-01T16:21:02.726Z,55.62
2023-04-01T16:23:51.225Z,55.69
2023-04-01T16:26:28.079Z,54.92
2023-04-01T16:29:13.629Z,54.76
2023-04-01T16:31:46.619Z,53.92
2023-04-01T16:34:16.505Z,53.94
2023-04-01T16:36:46.898Z,55.13
2023-04-01T16:39:22.407Z,55.05
2023-04-01T16:41:53.401Z,56.54
2023-04-01T16:44:27.139Z,54.52
2023-04-01T16:46:59.709Z,55.65
2023-04-01T16:49:38.842Z,53.89
2023-04-01T16:52:09.404Z,53.90
2023-04-01T16:54:54.506Z,53.41
2023-04-01T16:57:26.252Z,53.41
2023-04-01T17:00:17.691Z,53.48
2023-04-01T17:02:48.533Z,54.25
2023-04-01T17:05:15.285Z,53.43
2023-04-01T17:07:44.877Z,51.35
2023-04-01T17:10:30.560Z,52.66
2023-04-01T17:13:09.939Z,52.25
2023-04-01T17:15:46.247Z,51.31
2023-04-01T17:18:22.720Z,52.69
2023-04-01T17:21:03.212Z,52.49
2023-04-01T17:23:37.167Z,52.79
2023-04-01T17:26:29.947Z,52.41
2023-04-01T17:29:11.805Z,51.95
2023-04-01T17:31:47.560Z,51.58
2023-04-01T17:34:14.280Z,51.01
2023-04-01T17:36:44.265Z,51.62
2023-04-01T17:39:23.110Z,52.16
2023-04-01T17:42:01.728Z,51.35
2023-04-01T17:44:50.484Z,50.52
2023-04-01T17:47:32.330Z,49.75
2023-04-01T17:50:22.427Z,49.96
2023-04-01T17:52:49.065Z,50.26
2023-04-01T17:55:30.793Z,50.52
2023-04-01T17:58:03.565Z,50.32
2023-04-01T18:00:53.966Z,50.42
2023-04-01T18:03:33.794Z,50.67
2023-04-01T18:06:00.594Z,50.58
2023-04-01T18:08:36.572Z,50.42
2023-04-01T18:11:15.675Z,49.86
2023-04-01T18:14:00.978Z,50.00
2023-04-01T18:16:29.858Z,49.35
2023-04-01T18:19:15.963Z,49.22
2023-04-01T18:21:42.761Z,49.75
2023-04-01T18:24:13.267Z,49.89
2023-04-01T18:26:42.903Z,50.02
2023-04-01T18:29:20.278Z,50.58
2023-04-01T18:31:49.856Z,50.44
2023-04-01T18:34:20.322Z,50.31
2023-04-01T18:36:51.130Z,49.35
2023-04-01T18:39:25.444Z,49.07
2023-04-01T18:42:01.406Z,48.84
2023-04-01T18:44:28.043Z,48.77
2023-04-01T18:47:01.141Z,49.99
2023-04-01T18:49:40.914Z,49.20
2023-04-01T18:52:33.752Z,49.19
2023-04-01T18:55:03.541Z,49.73
2023-04-01T18:57:48.541Z,48.30
2023-04-01T19:00:16.049Z,48.15
2023-04-01T19:02:51.071Z,48.01
2023-04-01T19:05:17.673Z,47.92
2023-04-01T19:07:46.572Z,47.50
2023-04-01T19:10:24.623Z,47.37
2023-04-01T19:12:51.406Z,46.95
2023-04-01T19:15:18.255Z,48.81
2023-04-01T19:18:03.729Z,47.61
2023-04-01T19:20:46.308Z,48.52
2023-04-01T19:23:25.153Z,47.07
2023-04-01T19:25:55.081Z,47.08
2023-04-01T19:28:34.011Z,47.25
2023-04-01T19:31:09.741Z,46.54
2023-04-01T19:33:39.584Z,45.99
2023-04-01T19:36:12.263Z,46.89
2023-04-01T19:38:44.233Z,46.75
2023-04-01T19:41:40.610Z,46.34
2023-04-01T19:44:16.268Z,46.16
2023-04-01T19:46:52.476Z,47.11
2023-04-01T19:49:37.700Z,46.98
2023-04-01T19:52:08.150Z,47.12
2023-04-01T19:54:58.140Z,47.29
2023-04-01T19:57:31.761Z,47.47
2023-04-01T20:00:04.331Z,47.33
2023-04-01T20:02:36.217Z,47.36
2023-04-01T20:05:22.723Z,47.87
2023-04-01T20:07:53.909Z,46.43
2023-04-01T20:10:23.477Z,46.71
2023-04-01T20:12:58.969Z,45.67
2023-04-01T20:15:36.375Z,46.28
2023-04-01T20:18:06.934Z,45.12
2023-04-01T20:20:35.252Z,44.33
2023-04-01T20:23:22.322Z,44.31
2023-04-01T20:25:58.293Z,47.53
2023-04-01T20:28:37.496Z,44.24
2023-04-01T20:31:09.889Z,44.91
2023-04-01T20:33:52.913Z,44.91
2023-04-01T20:36:45.933Z,45.02
2023-04-01T20:39:31.301Z,45.83
2023-04-01T20:42:06.813Z,44.48
2023-04-01T20:44:39.593Z,45.34
2023-04-01T20:47:15.148Z,45.22
2023-04-01T20:49:55.493Z,44.49
2023-04-01T20:52:33.019Z,43.39
2023-04-01T20:55:07.428Z,44.03
2023-04-01T20:57:37.050Z,43.94
2023-04-01T21:00:21.273Z,42.68
2023-04-01T21:02:48.211Z,43.34
2023-04-01T21:05:33.633Z,42.56
2023-04-01T21:08:18.814Z,40.85
2023-04-01T21:11:00.703Z,41.71
2023-04-01T21:13:47.777Z,41.47
2023-04-01T21:16:24.995Z,40.73
2023-04-01T21:19:24.033Z,41.22
2023-04-01T21:22:05.791Z,41.81
2023-04-01T21:24:35.389Z,41.83
2023-04-01T21:27:20.934Z,41.83
2023-04-01T21:29:52.768Z,42.04
2023-04-01T21:32:20.180Z,41.99
2023-04-01T21:34:53.133Z,41.79
2023-04-01T21:37:34.438Z,41.90
2023-04-01T21:40:01.075Z,42.38
2023-04-01T21:42:30.987Z,41.33
2023-04-01T21:45:19.165Z,41.40
2023-04-01T21:47:45.795Z,41.79
2023-04-01T21:50:15.853Z,42.64
2023-04-01T21:52:42.482Z,42.24
2023-04-01T21:55:09.064Z,42.37
2023-04-01T21:57:56.002Z,41.90
2023-04-01T22:00:27.803Z,41.91
2023-04-01T22:03:24.286Z,41.33
2023-04-01T22:06:05.432Z,41.52
2023-04-01T22:08:38.128Z,41.83
2023-04-01T22:11:23.484Z,42.04
2023-04-01T22:13:59.002Z,40.85
2023-04-01T22:16:35.381Z,41.31
2023-04-01T22:19:14.252Z,40.67
2023-04-01T22:21:41.673Z,41.67
2023-04-01T22:24:25.398Z,41.52
2023-04-01T22:27:00.239Z,41.29
2023-04-01T22:29:35.201Z,42.02
2023-04-01T22:32:05.076Z,42.10
2023-04-01T22:34:34.699Z,42.12
2023-04-01T22:37:06.001Z,41.93
2023-04-01T22:39:48.186Z,41.96
2023-04-01T22:42:30.124Z,42.29
2023-04-01T22:45:07.182Z,41.69
2023-04-01T22:47:52.691Z,41.91
2023-04-01T22:50:23.063Z,42.62
2023-04-01T22:52:53.269Z,42.97
2023-04-01T22:55:25.111Z,42.39
2023-04-01T22:57:51.668Z,42.28
2023-04-01T23:00:26.946Z,41.64
2023-04-01T23:03:05.918Z,41.27
2023-04-01T23:05:33.165Z,41.41
2023-04-01T23:08:03.006Z,41.20
2023-04-01T23:10:38.511Z,40.82
2023-04-01T23:13:06.898Z,41.15
2023-04-01T23:15:34.281Z,40.70
2023-04-01T23:18:16.133Z,41.01
2023-04-01T23:21:01.738Z,39.97
2023-04-01T23:23:35.984Z,39.78
2023-04-01T23:26:11.444Z,40.59
2023-04-01T23:28:52.119Z,40.41
2023-04-01T23:31:21.816Z,40.10
2023-04-01T23:33:54.543Z,40.83
2023-04-01T23:36:21.411Z,40.66
2023-04-01T23:38:49.666Z,40.88
2023-04-01T23:41:30.955Z,40.15
2023-04-01T23:44:01.270Z,40.29
2023-04-01T23:46:30.245Z,39.63
2023-04-01T23:48:57.027Z,40.47
2023-04-01T23:51:26.088Z,40.54
2023-04-01T23:54:15.886Z,40.65
2023-04-01T23:56:44.491Z,41.31
2023-04-01T23:59:19.279Z,41.77
